Time;durP1;ratioP1;P1;durP2;ratioP2;P2;SDS_P1;SDS_P2;PMS_P1;PMS_P2;Temp;Humidity;BMP_temperature;BMP_pressure;BME280_temperature;BME280_humidity;BME280_pressure;Samples;Min_cycle;Max_cycle;Signal;HPM_P1;HPM_P2
2020/12/24 00:03:51;;;;;;;1.13;1.00;;;11.50;99.90;;;;;;10255685;29;20244;-81
2020/12/24 00:08:52;;;;;;;1.30;1.00;;;11.50;99.90;;;;;;10259801;29;20200;-80
2020/12/24 00:13:55;;;;;;;3.37;1.10;;;11.40;99.90;;;;;;10238529;29;20291;-80
2020/12/24 00:18:58;;;;;;;0.83;0.83;;;11.40;99.90;;;;;;10233615;29;20216;-79
2020/12/24 00:23:59;;;;;;;1.10;1.10;;;11.50;99.90;;;;;;10215972;29;20323;-79
2020/12/24 00:29:06;;;;;;;0.80;0.80;;;11.50;99.90;;;;;;10215880;29;20293;-80
2020/12/24 00:34:09;;;;;;;3.73;1.30;;;11.50;99.90;;;;;;10231487;29;20704;-82
2020/12/24 00:39:10;;;;;;;0.70;0.70;;;11.60;99.90;;;;;;10200169;29;20249;-80
2020/12/24 00:44:12;;;;;;;1.10;1.00;;;11.70;99.90;;;;;;10191460;29;20245;-81
2020/12/24 00:49:15;;;;;;;1.17;1.07;;;11.70;99.90;;;;;;10191584;29;20189;-79
2020/12/24 00:54:18;;;;;;;1.07;0.97;;;11.80;99.90;;;;;;10191129;29;20642;-81
2020/12/24 00:59:19;;;;;;;2.70;1.07;;;11.80;99.90;;;;;;10207472;29;20239;-81
2020/12/24 01:04:22;;;;;;;1.47;1.00;;;11.70;99.90;;;;;;10175224;29;20253;-81
2020/12/24 01:09:23;;;;;;;2.20;0.97;;;11.70;99.90;;;;;;10241505;29;20283;-80
2020/12/24 01:14:25;;;;;;;1.10;1.00;;;11.70;99.90;;;;;;10231949;29;20212;-81
2020/12/24 01:19:28;;;;;;;1.10;0.90;;;11.70;99.90;;;;;;10217151;29;20307;-80
2020/12/24 01:24:29;;;;;;;0.90;0.90;;;11.60;99.90;;;;;;10251608;29;20303;-82
2020/12/24 01:29:31;;;;;;;1.73;1.10;;;11.40;99.90;;;;;;10229929;29;20645;-81
2020/12/24 01:34:34;;;;;;;2.23;1.03;;;11.20;99.90;;;;;;10245678;29;20290;-80
2020/12/24 01:39:35;;;;;;;2.10;1.00;;;11.10;99.90;;;;;;10247871;28;20303;-82
2020/12/24 01:44:37;;;;;;;1.20;1.10;;;11.00;99.90;;;;;;10244257;28;20234;-80
2020/12/24 01:49:39;;;;;;;1.30;1.20;;;10.90;99.90;;;;;;10265208;28;20219;-82
2020/12/24 01:54:41;;;;;;;1.20;1.10;;;10.90;99.90;;;;;;10271707;28;20219;-81
2020/12/24 01:59:43;;;;;;;1.10;1.10;;;10.80;99.90;;;;;;10256554;28;20212;-81
2020/12/24 02:04:46;;;;;;;1.63;1.00;;;10.70;99.90;;;;;;10262383;28;20267;-81
2020/12/24 02:09:49;;;;;;;1.40;1.30;;;10.60;99.90;;;;;;10269640;28;20251;-82
2020/12/24 02:14:50;;;;;;;1.20;1.20;;;10.60;99.90;;;;;;10302220;23;20312;-80
2020/12/24 02:19:53;;;;;;;2.23;1.43;;;10.60;99.90;;;;;;10242271;29;20213;-79
2020/12/24 02:24:58;;;;;;;1.20;1.20;;;10.60;99.90;;;;;;10257874;29;20224;-82
2020/12/24 02:30:01;;;;;;;1.07;1.07;;;10.60;99.90;;;;;;10243720;29;20677;-82
2020/12/24 02:35:04;;;;;;;1.03;1.03;;;10.30;99.90;;;;;;10258841;28;20235;-81
2020/12/24 02:40:09;;;;;;;1.73;1.07;;;10.30;99.90;;;;;;10280712;28;20662;-83
2020/12/24 02:45:11;;;;;;;1.80;1.37;;;10.20;99.90;;;;;;10259629;28;20246;-81
2020/12/24 02:50:13;;;;;;;1.27;1.10;;;10.20;99.90;;;;;;10285868;28;20256;-81
2020/12/24 02:55:15;;;;;;;3.10;1.20;;;10.30;99.90;;;;;;10283176;28;20230;-80
2020/12/24 03:00:17;;;;;;;1.13;1.03;;;10.30;99.90;;;;;;10283670;28;20299;-80
2020/12/24 03:05:18;;;;;;;1.93;1.30;;;10.40;99.90;;;;;;10301663;28;20223;-80
2020/12/24 03:10:21;;;;;;;1.00;1.00;;;10.40;99.90;;;;;;10250364;29;20595;-81
2020/12/24 03:15:23;;;;;;;0.97;0.97;;;10.40;99.90;;;;;;10247149;29;20239;-81
2020/12/24 03:20:24;;;;;;;1.63;1.30;;;10.40;99.90;;;;;;10253113;29;20713;-81
2020/12/24 03:25:27;;;;;;;0.90;0.90;;;10.30;99.90;;;;;;10266849;29;20278;-80
2020/12/24 03:30:29;;;;;;;1.70;1.10;;;10.40;99.90;;;;;;10230471;29;20276;-81
2020/12/24 03:35:30;;;;;;;1.10;1.00;;;10.40;99.90;;;;;;10248674;28;20217;-81
2020/12/24 03:40:33;;;;;;;2.53;1.30;;;10.40;99.90;;;;;;10285791;28;20630;-80
2020/12/24 03:45:34;;;;;;;0.90;0.90;;;10.50;99.90;;;;;;10289541;28;20240;-81
2020/12/24 03:50:36;;;;;;;1.20;1.07;;;10.50;99.90;;;;;;10303633;28;20187;-81
2020/12/24 03:55:38;;;;;;;1.67;1.20;;;10.50;99.90;;;;;;10285369;28;20222;-81
2020/12/24 04:00:40;;;;;;;1.00;1.00;;;10.50;99.90;;;;;;10289121;28;20219;-82
2020/12/24 04:05:42;;;;;;;1.03;1.03;;;10.40;99.90;;;;;;10285838;28;20220;-81
2020/12/24 04:10:44;;;;;;;1.17;1.10;;;10.40;99.90;;;;;;10285832;28;20627;-81
2020/12/24 04:15:46;;;;;;;2.43;1.20;;;10.40;99.90;;;;;;10269310;28;20224;-81
2020/12/24 04:20:48;;;;;;;2.60;1.00;;;10.30;99.90;;;;;;10290033;28;20208;-80
2020/12/24 04:25:50;;;;;;;1.77;0.90;;;10.20;99.90;;;;;;10265646;23;20237;-83
2020/12/24 04:30:52;;;;;;;1.73;1.00;;;10.20;99.90;;;;;;10221534;29;20193;-83
2020/12/24 04:35:54;;;;;;;1.10;1.00;;;10.20;99.90;;;;;;10223172;29;20213;-83
2020/12/24 04:40:58;;;;;;;1.13;0.87;;;10.20;99.90;;;;;;10220230;29;20292;-83
2020/12/24 04:46:00;;;;;;;0.97;0.97;;;10.20;99.90;;;;;;10228490;29;20220;-83
2020/12/24 04:51:06;;;;;;;2.53;1.20;;;10.20;99.90;;;;;;10263264;29;20197;-83
2020/12/24 04:56:09;;;;;;;1.00;0.90;;;10.20;99.90;;;;;;10245426;29;20221;-83
2020/12/24 05:01:14;;;;;;;1.10;1.00;;;10.20;99.90;;;;;;10262200;29;20224;-83
2020/12/24 05:06:17;;;;;;;1.00;0.90;;;10.30;99.90;;;;;;10269265;28;20282;-83
2020/12/24 05:11:25;;;;;;;0.80;0.80;;;10.30;99.90;;;;;;10300668;28;20283;-82
2020/12/24 05:16:27;;;;;;;0.90;0.90;;;10.20;99.90;;;;;;10283361;28;20216;-83
2020/12/24 05:21:33;;;;;;;0.70;0.70;;;10.20;99.90;;;;;;10284906;28;20691;-83
2020/12/24 05:26:35;;;;;;;1.00;0.80;;;10.10;99.90;;;;;;10284705;28;20239;-83
2020/12/24 05:31:40;;;;;;;1.93;1.03;;;10.00;99.90;;;;;;10269783;28;20206;-82
2020/12/24 05:36:41;;;;;;;1.47;1.10;;;10.00;99.90;;;;;;10286222;28;20331;-83
2020/12/24 05:41:44;;;;;;;0.90;0.90;;;9.90;99.90;;;;;;10304666;28;20218;-82
2020/12/24 05:46:47;;;;;;;1.10;1.10;;;9.90;99.90;;;;;;10302785;28;20350;-83
2020/12/24 05:51:51;;;;;;;1.90;1.17;;;9.80;99.90;;;;;;10280815;28;20224;-82
2020/12/24 05:56:54;;;;;;;1.60;1.00;;;9.80;99.90;;;;;;10280415;28;20228;-82
2020/12/24 06:02:06;;;;;;;1.83;1.20;;;9.60;99.90;;;;;;10287139;28;20308;-80
2020/12/24 06:07:09;;;;;;;1.20;1.10;;;9.50;99.90;;;;;;10285381;28;20224;-80
2020/12/24 06:12:19;;;;;;;1.13;1.07;;;9.40;99.90;;;;;;10245503;29;20236;-80
2020/12/24 06:17:22;;;;;;;1.20;1.10;;;9.40;99.90;;;;;;10225014;29;20676;-81
2020/12/24 06:22:25;;;;;;;1.00;0.80;;;9.40;99.90;;;;;;10222932;29;20315;-80
2020/12/24 06:27:32;;;;;;;1.00;0.90;;;9.40;99.90;;;;;;10238928;29;20229;-80
2020/12/24 06:32:35;;;;;;;2.43;1.40;;;9.50;99.90;;;;;;10224630;29;20200;-81
2020/12/24 06:37:40;;;;;;;1.17;1.07;;;9.50;99.90;;;;;;10242811;28;20243;-81
2020/12/24 06:42:44;;;;;;;0.80;0.80;;;9.50;99.90;;;;;;10285349;28;20211;-80
2020/12/24 06:48:23;;;;;;;1.93;1.40;;;9.40;99.90;;;;;;10304340;28;20727;-80
2020/12/24 06:53:29;;;;;;;1.30;1.20;;;9.40;99.90;;;;;;10289824;28;20596;-80
2020/12/24 06:58:42;;;;;;;1.90;1.23;;;9.40;99.90;;;;;;10305070;28;20200;-80
2020/12/24 07:03:44;;;;;;;2.30;1.50;;;9.40;99.90;;;;;;10271780;28;20196;-80
2020/12/24 07:08:47;;;;;;;1.57;1.27;;;9.50;99.90;;;;;;10244030;29;20204;-80
2020/12/24 07:13:52;;;;;;;1.80;1.33;;;9.50;99.90;;;;;;10245507;29;20224;-80
2020/12/24 07:18:57;;;;;;;3.30;1.80;;;9.40;99.90;;;;;;10246668;29;20259;-80
2020/12/24 07:24:02;;;;;;;2.87;1.17;;;9.40;99.90;;;;;;10230426;29;20232;-80
2020/12/24 07:29:05;;;;;;;2.17;1.43;;;9.40;99.90;;;;;;10249944;29;20657;-80
2020/12/24 07:34:08;;;;;;;6.00;2.10;;;9.40;99.90;;;;;;10247485;29;20743;-80
2020/12/24 07:39:10;;;;;;;1.30;1.20;;;9.40;99.90;;;;;;10276025;28;20204;-80
2020/12/24 07:44:14;;;;;;;2.57;1.07;;;9.50;99.90;;;;;;10268168;28;20231;-79
2020/12/24 07:49:15;;;;;;;1.30;1.20;;;9.50;99.90;;;;;;10302400;28;20545;-79
2020/12/24 07:54:17;;;;;;;3.17;1.23;;;9.60;99.90;;;;;;10298976;28;20219;-80
2020/12/24 07:59:23;;;;;;;1.80;1.63;;;9.60;99.90;;;;;;10268353;28;20227;-80
2020/12/24 08:04:25;;;;;;;4.80;1.60;;;9.70;99.90;;;;;;10265580;28;20295;-82
2020/12/24 08:09:26;;;;;;;5.10;1.43;;;9.70;99.90;;;;;;10279638;28;20196;-82
2020/12/24 08:14:30;;;;;;;4.30;2.33;;;9.80;99.90;;;;;;10261612;28;20785;-82
2020/12/24 08:19:40;;;;;;;3.93;1.33;;;9.90;99.90;;;;;;10281703;28;20703;-83
2020/12/24 08:24:43;;;;;;;2.97;1.50;;;10.00;99.90;;;;;;10269081;28;20235;-83
2020/12/24 08:29:47;;;;;;;2.27;1.50;;;9.90;99.90;;;;;;10217924;29;20284;-81
2020/12/24 08:34:48;;;;;;;3.90;1.47;;;9.90;99.90;;;;;;10259894;29;20225;-83
2020/12/24 08:39:50;;;;;;;2.67;1.30;;;9.80;99.90;;;;;;10241958;29;20650;-83
2020/12/24 08:44:57;;;;;;;1.07;1.07;;;9.80;99.90;;;;;;10257381;28;20243;-83
2020/12/24 08:49:58;;;;;;;2.80;1.20;;;9.80;99.90;;;;;;10264214;28;20208;-82
2020/12/24 08:55:01;;;;;;;4.63;1.20;;;9.80;99.90;;;;;;10272677;28;20340;-83
2020/12/24 09:00:06;;;;;;;1.73;1.30;;;9.80;99.90;;;;;;10273529;28;20260;-83
2020/12/24 09:05:07;;;;;;;1.77;1.00;;;9.80;99.90;;;;;;10241843;28;20755;-83
2020/12/24 09:10:11;;;;;;;1.03;1.00;;;9.80;99.90;;;;;;10234100;29;20252;-82
2020/12/24 09:15:15;;;;;;;1.10;1.00;;;9.80;99.90;;;;;;10239771;28;20216;-83
2020/12/24 09:20:22;;;;;;;2.27;1.13;;;9.90;99.90;;;;;;10253201;28;20242;-83
2020/12/24 09:25:43;;;;;;;1.27;1.17;;;10.00;99.90;;;;;;10277359;28;20280;-83
2020/12/24 09:30:46;;;;;;;1.37;1.13;;;10.00;99.90;;;;;;10264998;28;20193;-83
2020/12/24 09:35:48;;;;;;;1.90;1.20;;;10.00;99.90;;;;;;10236564;28;20220;-82
2020/12/24 09:40:50;;;;;;;1.10;1.00;;;9.90;99.90;;;;;;10273632;28;20228;-83
2020/12/24 09:45:54;;;;;;;1.63;1.10;;;10.00;99.90;;;;;;10262512;28;20220;-83
2020/12/24 09:50:55;;;;;;;1.83;1.20;;;10.00;99.90;;;;;;10270206;28;20287;-83
2020/12/24 09:55:57;;;;;;;4.40;1.10;;;10.00;99.90;;;;;;10232400;28;20207;-83
2020/12/24 10:01:00;;;;;;;0.90;0.90;;;10.10;99.90;;;;;;10263669;28;20595;-82
2020/12/24 10:06:01;;;;;;;1.63;1.43;;;10.10;99.90;;;;;;10255680;28;20216;-82
2020/12/24 10:11:03;;;;;;;1.43;1.30;;;10.10;99.90;;;;;;10242454;28;20199;-83
2020/12/24 10:16:05;;;;;;;1.77;1.33;;;10.30;99.90;;;;;;10269051;28;20281;-82
2020/12/24 10:21:10;;;;;;;2.60;1.37;;;10.40;99.90;;;;;;10254129;28;20282;-82
2020/12/24 10:26:16;;;;;;;3.53;1.07;;;10.50;99.90;;;;;;10293071;23;20236;-82
2020/12/24 10:31:19;;;;;;;1.67;1.00;;;10.50;99.90;;;;;;10278315;28;20220;-81
2020/12/24 10:36:23;;;;;;;1.60;1.30;;;10.70;99.90;;;;;;10263808;28;20224;-80
2020/12/24 10:41:25;;;;;;;2.00;1.47;;;10.90;99.60;;;;;;10269167;28;20796;-81
2020/12/24 10:46:27;;;;;;;1.90;1.23;;;10.90;99.50;;;;;;10251029;28;20310;-80
2020/12/24 10:51:32;;;;;;;1.73;1.20;;;11.00;99.90;;;;;;10263483;28;20243;-81
2020/12/24 10:56:34;;;;;;;0.80;0.80;;;11.00;99.40;;;;;;10283107;28;20237;-81
2020/12/24 11:01:36;;;;;;;1.00;0.90;;;11.00;99.00;;;;;;10289162;28;20204;-80
2020/12/24 11:06:42;;;;;;;2.90;0.97;;;10.90;99.00;;;;;;10263083;28;20251;-81
2020/12/24 11:11:44;;;;;;;0.80;0.80;;;10.90;99.40;;;;;;10270530;28;20185;-80
2020/12/24 11:16:46;;;;;;;1.20;1.10;;;10.90;98.90;;;;;;10264931;28;20311;-80
2020/12/24 11:21:48;;;;;;;1.17;1.10;;;10.90;98.80;;;;;;10268004;28;20220;-80
2020/12/24 11:26:50;;;;;;;1.57;1.00;;;10.80;99.10;;;;;;10278263;28;20230;-82
2020/12/24 11:31:56;;;;;;;1.00;1.00;;;10.70;98.80;;;;;;10286929;28;20375;-80
2020/12/24 11:36:58;;;;;;;0.77;0.77;;;10.50;99.20;;;;;;10259878;28;20244;-81
2020/12/24 11:42:00;;;;;;;0.90;0.90;;;10.40;98.70;;;;;;10268065;29;20225;-80
2020/12/24 11:47:03;;;;;;;2.10;1.30;;;10.30;99.50;;;;;;10236864;29;20285;-82
2020/12/24 11:52:04;;;;;;;1.33;0.97;;;10.20;99.00;;;;;;10250466;29;20219;-81
2020/12/24 11:57:06;;;;;;;0.67;0.60;;;10.20;98.70;;;;;;10242589;29;20295;-81
2020/12/24 12:02:08;;;;;;;1.20;0.97;;;10.20;99.40;;;;;;10257278;29;20251;-82
2020/12/24 12:07:10;;;;;;;0.90;0.90;;;10.10;99.50;;;;;;10239094;29;20225;-81
2020/12/24 12:12:12;;;;;;;1.10;1.00;;;10.20;99.50;;;;;;10224681;29;20729;-82
2020/12/24 12:17:16;;;;;;;1.27;1.17;;;10.20;99.70;;;;;;10219885;29;20677;-81
2020/12/24 12:22:17;;;;;;;0.60;0.60;;;10.20;99.30;;;;;;10207276;29;20228;-80
2020/12/24 12:27:19;;;;;;;0.80;0.80;;;10.20;99.30;;;;;;10222463;29;20305;-80
2020/12/24 12:32:21;;;;;;;1.10;1.10;;;10.20;99.20;;;;;;10207046;29;20193;-80
2020/12/24 12:37:23;;;;;;;1.20;1.10;;;10.30;99.20;;;;;;10221831;28;20239;-82
2020/12/24 12:42:25;;;;;;;0.93;0.93;;;10.30;99.60;;;;;;10246436;29;20220;-82
2020/12/24 12:47:27;;;;;;;1.10;1.00;;;10.40;99.40;;;;;;10231410;29;20224;-82
2020/12/24 12:52:30;;;;;;;1.13;1.03;;;10.40;99.00;;;;;;10230731;29;20295;-81
2020/12/24 12:57:35;;;;;;;1.03;1.00;;;10.40;98.90;;;;;;10232940;29;20583;-80
2020/12/24 13:02:37;;;;;;;1.20;1.10;;;10.40;98.50;;;;;;10269264;29;20235;-82
2020/12/24 13:07:39;;;;;;;0.70;0.70;;;10.30;99.20;;;;;;10231424;28;20232;-80
2020/12/24 13:12:41;;;;;;;1.20;1.10;;;10.30;99.30;;;;;;10244224;29;20188;-82
2020/12/24 13:17:43;;;;;;;1.80;1.03;;;10.30;99.10;;;;;;10244052;29;20333;-84
2020/12/24 13:22:46;;;;;;;1.10;1.00;;;10.40;99.50;;;;;;10245532;29;20287;-81
2020/12/24 13:27:47;;;;;;;1.40;1.30;;;10.40;99.60;;;;;;10229307;29;20239;-81
2020/12/24 13:32:50;;;;;;;1.30;1.20;;;10.40;99.40;;;;;;10246874;29;20200;-80
2020/12/24 13:37:52;;;;;;;1.23;0.80;;;10.40;98.80;;;;;;10230665;28;20652;-82
2020/12/24 13:42:53;;;;;;;1.40;1.30;;;10.40;99.20;;;;;;10246486;29;20212;-82
2020/12/24 13:47:56;;;;;;;1.10;1.10;;;10.30;99.50;;;;;;10261346;28;20721;-82
2020/12/24 13:52:58;;;;;;;1.37;1.27;;;10.40;99.10;;;;;;10266198;29;20573;-82
2020/12/24 13:57:59;;;;;;;1.30;1.30;;;10.40;99.60;;;;;;10262294;29;20255;-81
2020/12/24 14:03:02;;;;;;;1.47;1.03;;;10.40;98.70;;;;;;10245252;29;20275;-82
2020/12/24 14:08:04;;;;;;;1.50;0.80;;;10.50;98.80;;;;;;10248956;28;20220;-81
2020/12/24 14:13:05;;;;;;;2.60;1.20;;;10.50;98.50;;;;;;10229030;29;20212;-81
2020/12/24 14:18:08;;;;;;;3.03;1.63;;;10.50;98.60;;;;;;10261290;29;20223;-82
2020/12/24 14:23:11;;;;;;;1.50;1.30;;;10.50;98.90;;;;;;10230285;29;20644;-82
2020/12/24 14:28:12;;;;;;;1.07;1.07;;;10.40;99.40;;;;;;10227466;29;20232;-81
2020/12/24 14:33:15;;;;;;;1.43;1.20;;;10.40;98.60;;;;;;10241064;29;20197;-80
2020/12/24 14:38:16;;;;;;;1.43;0.97;;;10.40;98.90;;;;;;10241108;29;20260;-81
2020/12/24 14:43:18;;;;;;;1.00;0.97;;;10.40;98.90;;;;;;10259530;29;20274;-81
2020/12/24 14:48:20;;;;;;;1.37;1.27;;;10.50;99.10;;;;;;10258904;29;20295;-80
2020/12/24 14:53:22;;;;;;;1.43;1.33;;;10.50;98.20;;;;;;10242460;29;20192;-82
2020/12/24 14:58:24;;;;;;;1.30;1.20;;;10.50;98.50;;;;;;10226982;29;20624;-82
2020/12/24 15:03:27;;;;;;;1.30;1.20;;;10.50;98.70;;;;;;10234151;29;20301;-82
2020/12/24 15:08:28;;;;;;;1.30;1.30;;;10.50;98.90;;;;;;10238325;29;20232;-82
2020/12/24 15:13:30;;;;;;;1.40;1.30;;;10.50;98.80;;;;;;10230132;29;20200;-81
2020/12/24 15:18:32;;;;;;;2.50;1.27;;;10.50;98.90;;;;;;10262932;29;22082;-81
2020/12/24 15:23:34;;;;;;;1.40;1.30;;;10.60;99.00;;;;;;10247584;29;20264;-82
2020/12/24 15:28:36;;;;;;;1.33;1.23;;;10.60;98.80;;;;;;10246326;29;20248;-80
2020/12/24 15:33:38;;;;;;;1.67;1.57;;;10.60;99.00;;;;;;10246567;29;20193;-81
2020/12/24 15:38:40;;;;;;;1.73;1.63;;;10.60;98.70;;;;;;10265237;28;20213;-82
2020/12/24 15:43:41;;;;;;;1.87;1.77;;;10.60;99.30;;;;;;10231666;29;20200;-82
2020/12/24 15:48:44;;;;;;;1.80;1.50;;;10.60;99.30;;;;;;10248269;29;20236;-82
2020/12/24 15:53:45;;;;;;;1.60;1.50;;;10.60;99.70;;;;;;10248864;29;20204;-81
2020/12/24 15:58:47;;;;;;;1.60;1.50;;;10.60;99.40;;;;;;10233356;29;20271;-83
2020/12/24 16:03:49;;;;;;;1.53;1.43;;;10.70;99.70;;;;;;10234370;29;20208;-82
2020/12/24 16:08:51;;;;;;;1.40;1.30;;;10.70;99.60;;;;;;10249633;29;20315;-82
2020/12/24 16:13:53;;;;;;;1.57;1.43;;;10.70;99.80;;;;;;10248561;29;20196;-81
2020/12/24 16:18:56;;;;;;;2.00;1.90;;;10.70;99.50;;;;;;10245455;29;20303;-81
2020/12/24 16:23:57;;;;;;;2.13;1.27;;;10.70;99.70;;;;;;10264389;29;20636;-81
2020/12/24 16:28:59;;;;;;;1.60;1.50;;;10.60;99.80;;;;;;10277915;23;20235;-82
2020/12/24 16:34:01;;;;;;;1.23;1.13;;;10.60;99.40;;;;;;10275850;28;20560;-82
2020/12/24 16:39:03;;;;;;;1.47;1.40;;;10.60;99.50;;;;;;10251371;29;20232;-82
2020/12/24 16:44:05;;;;;;;2.00;1.90;;;10.60;99.10;;;;;;10235944;29;20208;-82
2020/12/24 16:49:07;;;;;;;2.00;1.80;;;10.50;99.70;;;;;;10235462;29;20216;-82
2020/12/24 16:54:09;;;;;;;1.57;1.47;;;10.50;99.00;;;;;;10235114;29;20204;-82
2020/12/24 16:59:10;;;;;;;3.23;1.50;;;10.50;99.60;;;;;;10235287;29;20248;-82
2020/12/24 17:04:13;;;;;;;1.60;1.50;;;10.50;99.90;;;;;;10252028;29;20196;-82
2020/12/24 17:09:14;;;;;;;1.90;1.80;;;10.50;99.90;;;;;;10266688;28;20231;-82
2020/12/24 17:14:16;;;;;;;1.60;1.50;;;10.40;99.90;;;;;;10274845;28;20195;-82
2020/12/24 17:19:19;;;;;;;1.93;1.83;;;10.40;99.90;;;;;;10274636;28;20581;-82
2020/12/24 17:24:20;;;;;;;2.20;2.00;;;10.40;99.90;;;;;;10258063;28;20254;-82
2020/12/24 17:29:22;;;;;;;2.30;1.63;;;10.20;99.90;;;;;;10258321;28;20232;-82
2020/12/24 17:34:25;;;;;;;2.10;2.00;;;10.10;99.90;;;;;;10274527;28;20674;-82
2020/12/24 17:39:26;;;;;;;2.70;2.20;;;10.00;99.90;;;;;;10275767;28;20223;-82
2020/12/24 17:44:29;;;;;;;2.43;2.23;;;9.80;99.90;;;;;;10256864;28;20278;-82
2020/12/24 17:49:31;;;;;;;2.30;2.10;;;9.70;99.90;;;;;;10257004;28;20243;-82
2020/12/24 17:54:33;;;;;;;2.50;2.40;;;9.60;99.90;;;;;;10289451;28;20223;-82
2020/12/24 17:59:34;;;;;;;2.23;2.10;;;9.50;99.90;;;;;;10271544;28;20339;-82
2020/12/24 18:04:37;;;;;;;2.03;1.93;;;9.40;99.90;;;;;;10272311;28;20589;-82
2020/12/24 18:09:40;;;;;;;2.40;2.20;;;9.40;99.90;;;;;;10234900;29;20231;-82
2020/12/24 18:14:41;;;;;;;2.50;2.30;;;9.30;99.90;;;;;;10236188;29;20255;-82
2020/12/24 18:19:44;;;;;;;2.47;2.27;;;9.20;99.90;;;;;;10253467;29;20224;-82
2020/12/24 18:24:46;;;;;;;3.23;2.70;;;9.10;99.90;;;;;;10217252;28;20241;-82
2020/12/24 18:29:48;;;;;;;2.80;2.60;;;9.10;99.90;;;;;;10249503;29;20276;-82
2020/12/24 18:34:50;;;;;;;2.50;1.90;;;9.00;99.90;;;;;;10218622;28;20220;-82
2020/12/24 18:39:52;;;;;;;1.77;1.67;;;9.10;99.90;;;;;;10260328;28;20219;-82
2020/12/24 18:44:54;;;;;;;2.60;1.93;;;9.00;99.90;;;;;;10269592;28;20668;-82
2020/12/24 18:49:56;;;;;;;2.03;1.80;;;8.90;99.90;;;;;;10264007;28;20223;-82
2020/12/24 18:54:58;;;;;;;1.97;1.87;;;8.90;99.90;;;;;;10280086;28;20220;-82
2020/12/24 18:59:59;;;;;;;1.97;1.87;;;8.90;99.90;;;;;;10297947;28;20591;-82
2020/12/24 19:05:02;;;;;;;2.27;2.10;;;8.80;99.90;;;;;;10298031;28;20684;-83
2020/12/24 19:10:04;;;;;;;2.50;2.40;;;8.80;99.90;;;;;;10280639;28;20663;-82
2020/12/24 19:15:06;;;;;;;2.03;1.83;;;8.70;99.90;;;;;;10280731;28;20663;-82
2020/12/24 19:20:09;;;;;;;2.20;2.10;;;8.60;99.90;;;;;;10280728;28;20219;-82
2020/12/24 19:25:11;;;;;;;1.90;1.80;;;8.50;99.90;;;;;;10298347;28;20238;-82
2020/12/24 19:30:12;;;;;;;2.10;2.00;;;8.50;99.90;;;;;;10280573;28;20322;-82
2020/12/24 19:35:15;;;;;;;1.63;1.53;;;8.50;99.90;;;;;;10280752;28;20257;-82
2020/12/24 19:40:17;;;;;;;2.13;2.03;;;8.40;99.90;;;;;;10264975;28;20221;-82
2020/12/24 19:45:18;;;;;;;1.67;1.57;;;8.40;99.90;;;;;;10263903;28;20227;-82
2020/12/24 19:50:21;;;;;;;2.00;1.90;;;8.30;99.90;;;;;;10264985;28;20202;-82
2020/12/24 19:55:23;;;;;;;1.83;1.73;;;8.40;99.90;;;;;;10263806;28;20250;-82
2020/12/24 20:00:25;;;;;;;2.73;2.53;;;8.40;99.90;;;;;;10264433;28;20231;-82
2020/12/24 20:05:27;;;;;;;2.00;1.80;;;8.40;99.90;;;;;;10297978;28;20303;-82
2020/12/24 20:10:29;;;;;;;1.90;1.80;;;8.50;99.90;;;;;;10281622;28;20246;-83
2020/12/24 20:15:31;;;;;;;2.20;2.10;;;8.60;99.90;;;;;;10281993;28;20310;-82
2020/12/24 20:20:34;;;;;;;3.30;2.30;;;8.60;99.90;;;;;;10286813;28;20235;-83
2020/12/24 20:25:36;;;;;;;2.40;2.20;;;8.60;99.90;;;;;;10259874;28;20231;-82
2020/12/24 20:30:38;;;;;;;2.20;2.10;;;8.70;99.90;;;;;;10259070;28;20200;-82
2020/12/24 20:35:41;;;;;;;3.10;2.90;;;8.70;99.90;;;;;;10275487;28;20392;-82
2020/12/24 20:40:42;;;;;;;1.97;1.87;;;8.80;99.90;;;;;;10260216;28;20216;-82
2020/12/24 20:45:44;;;;;;;2.70;2.50;;;8.70;99.90;;;;;;10276308;28;20216;-82
2020/12/24 20:50:47;;;;;;;1.90;1.80;;;8.80;99.90;;;;;;10261316;28;20223;-82
2020/12/24 20:55:48;;;;;;;2.00;1.90;;;8.80;99.90;;;;;;10274579;28;20258;-82
2020/12/24 21:00:50;;;;;;;1.80;1.70;;;8.70;99.90;;;;;;10258122;28;20235;-82
2020/12/24 21:05:52;;;;;;;3.17;3.07;;;8.60;99.90;;;;;;10273625;28;20587;-82
2020/12/24 21:10:54;;;;;;;3.80;3.70;;;8.40;99.90;;;;;;10275574;28;20227;-82
2020/12/24 21:15:56;;;;;;;3.63;3.53;;;8.10;99.90;;;;;;10277583;28;20212;-82
2020/12/24 21:20:58;;;;;;;4.23;4.03;;;7.80;99.90;;;;;;10278030;28;20227;-82
2020/12/24 21:26:00;;;;;;;3.73;3.60;;;7.50;99.90;;;;;;10276893;28;20599;-82
2020/12/24 21:31:02;;;;;;;3.90;3.80;;;7.20;99.90;;;;;;10257075;28;20206;-82
2020/12/24 21:36:05;;;;;;;3.53;3.43;;;7.00;99.90;;;;;;10292176;28;20244;-82
2020/12/24 21:41:10;;;;;;;3.40;3.30;;;6.80;99.90;;;;;;10263080;28;20235;-82
2020/12/24 21:46:15;;;;;;;3.20;3.10;;;6.70;99.90;;;;;;10296053;28;20212;-82
2020/12/24 21:51:18;;;;;;;3.20;3.10;;;6.60;99.90;;;;;;10264144;28;20635;-82
2020/12/24 21:56:21;;;;;;;3.00;2.90;;;6.50;99.90;;;;;;10274404;28;20224;-82
2020/12/24 22:01:24;;;;;;;3.30;3.20;;;6.30;99.90;;;;;;10274895;28;20715;-82
2020/12/24 22:06:27;;;;;;;2.60;2.50;;;6.20;99.90;;;;;;10259490;28;20623;-82
2020/12/24 22:11:29;;;;;;;2.90;2.80;;;6.10;99.90;;;;;;10264579;28;20274;-82
2020/12/24 22:16:30;;;;;;;2.50;2.40;;;6.00;99.90;;;;;;10283952;28;20318;-83
2020/12/24 22:21:33;;;;;;;2.60;2.50;;;5.90;99.90;;;;;;10269075;28;20234;-83
2020/12/24 22:26:35;;;;;;;2.70;2.60;;;5.90;99.90;;;;;;10276662;23;20264;-85
2020/12/24 22:31:36;;;;;;;2.90;2.80;;;5.80;99.90;;;;;;10273104;28;20227;-83
2020/12/24 22:36:41;;;;;;;2.60;2.50;;;5.70;99.90;;;;;;10303621;28;20243;-85
2020/12/24 22:41:42;;;;;;;2.60;2.50;;;5.50;99.90;;;;;;10311078;28;20223;-85
2020/12/24 22:46:44;;;;;;;2.40;2.33;;;5.50;99.90;;;;;;10346203;28;20759;-85
2020/12/24 22:51:46;;;;;;;2.20;2.20;;;5.50;99.90;;;;;;10314072;28;20195;-85
2020/12/24 22:56:48;;;;;;;2.77;2.67;;;5.40;99.90;;;;;;10296685;28;20228;-85
2020/12/24 23:01:50;;;;;;;2.50;2.40;;;5.40;99.90;;;;;;10290011;28;20233;-85
2020/12/24 23:06:52;;;;;;;2.70;2.60;;;5.30;99.90;;;;;;10273632;28;20603;-84
2020/12/24 23:11:54;;;;;;;2.80;2.70;;;5.20;99.90;;;;;;10286926;28;20215;-84
2020/12/24 23:16:58;;;;;;;2.53;2.43;;;5.30;99.90;;;;;;10269769;28;20227;-84
2020/12/24 23:22:02;;;;;;;2.30;2.30;;;5.30;99.90;;;;;;10271640;28;20216;-84
2020/12/24 23:27:04;;;;;;;2.37;2.33;;;5.30;99.90;;;;;;10272734;28;20268;-85
2020/12/24 23:32:06;;;;;;;2.60;2.50;;;5.10;99.90;;;;;;10271817;28;20551;-82
2020/12/24 23:37:09;;;;;;;2.77;2.67;;;5.10;99.90;;;;;;10288626;28;20208;-85
2020/12/24 23:42:11;;;;;;;3.00;2.90;;;5.10;99.90;;;;;;10289498;28;20282;-85
2020/12/24 23:47:12;;;;;;;2.73;2.63;;;5.10;99.90;;;;;;10290232;28;20223;-85
2020/12/24 23:52:15;;;;;;;2.73;2.63;;;5.10;99.90;;;;;;10273694;28;20192;-85
2020/12/24 23:57:16;;;;;;;3.40;3.20;;;5.10;99.90;;;;;;10289469;28;20256;-85
